Time;durP1;ratioP1;P1;durP2;ratioP2;P2;SDS_P1;SDS_P2;PMS_P1;PMS_P2;Temp;Humidity;BMP_temperature;BMP_pressure;BME280_temperature;BME280_humidity;BME280_pressure;Samples;Min_cycle;Max_cycle;Signal;HPM_P1;HPM_P2
2021/12/31 00:00:22;;;;;;;26.73;12.25;;;;;;;9.85;96.58;96538.69;1754404;80;21386;-82
2021/12/31 00:02:50;;;;;;;20.68;9.28;;;;;;;9.86;96.61;96539.80;1752654;80;21470;-82
2021/12/31 00:05:16;;;;;;;17.17;8.40;;;;;;;9.86;96.88;96547.59;1758639;80;21059;-82
2021/12/31 00:07:43;;;;;;;11.97;7.00;;;;;;;9.88;96.65;96548.71;1760937;80;21034;-81
2021/12/31 00:10:09;;;;;;;20.40;10.10;;;;;;;9.88;96.48;96545.63;1746413;80;20976;-81
2021/12/31 00:12:35;;;;;;;28.60;11.73;;;;;;;9.89;96.43;96547.23;1764251;80;21050;-81
2021/12/31 00:15:01;;;;;;;5.30;3.15;;;;;;;9.90;96.38;96557.13;1751258;80;21076;-81
2021/12/31 00:17:27;;;;;;;9.10;4.95;;;;;;;9.89;96.36;96551.13;1763177;80;21410;-82
2021/12/31 00:20:03;;;;;;;44.20;16.70;;;;;;;9.90;96.28;96546.75;1744089;80;21017;-81
2021/12/31 00:24:53;;;;;;;13.10;6.50;;;;;;;9.91;96.63;96547.06;1759206;80;21486;-81
2021/12/31 00:27:19;;;;;;;12.40;7.35;;;;;;;9.90;96.49;96553.23;1770002;80;21050;-81
2021/12/31 00:29:45;;;;;;;57.88;22.48;;;;;;;9.88;96.41;96546.92;1761040;80;21035;-81
2021/12/31 00:32:10;;;;;;;37.23;15.63;;;;;;;9.89;96.25;96551.62;1770479;80;21065;-82
2021/12/31 00:34:36;;;;;;;17.73;9.18;;;;;;;9.88;96.23;96555.20;1765302;80;21072;-81
2021/12/31 00:37:02;;;;;;;8.55;4.75;;;;;;;9.88;96.37;96564.28;1758291;80;21011;-81
2021/12/31 00:39:28;;;;;;;22.93;9.60;;;;;;;9.87;96.08;96562.67;1758696;80;20988;-81
2021/12/31 00:41:54;;;;;;;15.23;7.37;;;;;;;9.88;95.96;96566.88;1768237;79;21469;-82
2021/12/31 00:44:20;;;;;;;15.95;7.60;;;;;;;9.88;96.14;96565.09;1760226;80;21069;-81
2021/12/31 00:46:47;;;;;;;15.13;7.95;;;;;;;9.87;96.04;96573.86;1765907;80;21031;-81
2021/12/31 00:49:14;;;;;;;23.80;11.25;;;;;;;9.89;95.99;96573.19;1758856;80;21074;-81
2021/12/31 00:51:40;;;;;;;26.97;12.53;;;;;;;9.90;95.90;96571.41;1758190;80;20992;-81
2021/12/31 00:54:06;;;;;;;29.20;15.10;;;;;;;9.89;95.85;96574.98;1770233;80;21107;-81
2021/12/31 00:56:32;;;;;;;11.68;6.53;;;;;;;9.89;95.78;96578.39;1760422;80;21114;-82
2021/12/31 00:58:58;;;;;;;13.93;7.95;;;;;;;9.91;95.72;96578.20;1747348;79;21058;-81
2021/12/31 01:01:25;;;;;;;12.98;7.22;;;;;;;9.91;95.71;96578.20;1761876;80;21009;-81
2021/12/31 01:03:51;;;;;;;18.10;8.60;;;;;;;9.92;95.62;96570.73;1758730;80;21734;-81
2021/12/31 01:06:17;;;;;;;15.58;8.98;;;;;;;9.93;95.58;96585.36;1771955;80;21031;-81
2021/12/31 01:08:42;;;;;;;15.32;7.30;;;;;;;9.91;95.55;96578.20;1775683;80;21332;-81
2021/12/31 01:11:08;;;;;;;6.67;4.40;;;;;;;9.88;96.12;96586.34;1765769;80;21014;-81
2021/12/31 01:13:47;;;;;;;18.92;9.73;;;;;;;9.85;96.16;96594.48;1768469;80;21375;-81
2021/12/31 01:16:04;;;;;;;27.50;12.73;;;;;;;9.82;96.49;96583.95;1762241;80;21026;-81
2021/12/31 01:21:15;;;;;;;11.03;6.97;;;;;;;9.82;97.21;96587.85;1757733;80;21039;-81
2021/12/31 01:23:41;;;;;;;6.33;4.62;;;;;;;9.82;96.75;96592.23;1770595;80;20999;-81
2021/12/31 01:26:07;;;;;;;15.78;9.28;;;;;;;9.81;96.69;96590.62;1761265;80;20996;-81
2021/12/31 01:28:33;;;;;;;5.17;4.00;;;;;;;9.81;96.97;96593.22;1759318;80;20999;-81
2021/12/31 01:30:59;;;;;;;6.95;5.33;;;;;;;9.81;96.92;96594.52;1751750;80;21098;-81
2021/12/31 01:33:24;;;;;;;7.35;5.10;;;;;;;9.82;96.92;96595.64;1766768;80;20991;-81
2021/12/31 01:35:50;;;;;;;17.00;8.45;;;;;;;9.82;97.04;96588.34;1770351;80;21481;-81
2021/12/31 01:38:17;;;;;;;14.87;7.83;;;;;;;9.82;97.12;96590.45;1758022;80;21000;-81
2021/12/31 01:40:43;;;;;;;17.02;8.13;;;;;;;9.82;97.22;96590.45;1762257;80;21000;-81
2021/12/31 01:43:11;;;;;;;4.40;3.42;;;;;;;9.84;97.46;96591.08;1762903;80;21015;-81
2021/12/31 01:45:43;;;;;;;7.62;4.22;;;;;;;9.82;97.47;96593.04;1756264;80;21536;-82
2021/12/31 01:48:07;;;;;;;8.53;5.33;;;;;;;9.80;97.45;96588.52;1751129;80;21024;-81
2021/12/31 01:50:32;;;;;;;21.52;11.63;;;;;;;9.81;97.58;96595.81;1764982;79;20979;-81
2021/12/31 01:52:58;;;;;;;9.33;5.42;;;;;;;9.82;97.70;96599.53;1762136;79;21019;-81
2021/12/31 01:55:27;;;;;;;5.15;3.70;;;;;;;9.84;97.62;96606.66;1767067;80;21004;-81
2021/12/31 01:57:53;;;;;;;10.10;6.03;;;;;;;9.83;97.46;96606.33;1764876;80;21035;-81
2021/12/31 02:00:18;;;;;;;18.32;9.08;;;;;;;9.84;97.66;96611.03;1755006;80;21488;-81
2021/12/31 02:02:46;;;;;;;7.60;5.25;;;;;;;9.82;97.60;96606.02;1745597;80;21011;-81
2021/12/31 02:05:12;;;;;;;8.18;5.05;;;;;;;9.81;97.49;96607.00;1762955;80;21003;-81
2021/12/31 02:07:38;;;;;;;17.37;7.50;;;;;;;9.80;97.55;96612.36;1757613;79;21080;-82
2021/12/31 02:10:04;;;;;;;6.83;4.45;;;;;;;9.78;97.62;96616.92;1745836;80;21498;-81
2021/12/31 02:12:30;;;;;;;4.53;3.35;;;;;;;9.76;97.46;96615.80;1769154;80;21073;-81
2021/12/31 02:14:55;;;;;;;7.72;4.28;;;;;;;9.74;97.41;96616.92;1761663;80;21523;-82
2021/12/31 02:17:22;;;;;;;14.60;7.62;;;;;;;9.72;97.42;96618.88;1754250;80;20947;-82
2021/12/31 02:20:05;;;;;;;9.15;4.95;;;;;;;9.70;97.32;96615.66;1731128;80;21082;-81
2021/12/31 02:22:28;;;;;;;8.08;4.53;;;;;;;9.73;97.44;96620.49;1754757;80;21083;-81
2021/12/31 02:24:55;;;;;;;16.25;8.30;;;;;;;9.71;97.54;96615.48;1769230;80;21007;-81
2021/12/31 02:27:24;;;;;;;8.15;5.15;;;;;;;9.70;97.56;96610.46;1757037;80;21013;-82
2021/12/31 02:29:50;;;;;;;5.28;4.50;;;;;;;9.69;97.77;96612.73;1766909;80;21114;-82
2021/12/31 02:32:16;;;;;;;12.25;7.67;;;;;;;9.68;97.79;96605.45;1768765;80;21070;-81
2021/12/31 02:34:42;;;;;;;25.37;12.60;;;;;;;9.69;97.94;96604.95;1762670;80;21436;-81
2021/12/31 02:37:08;;;;;;;15.65;8.53;;;;;;;9.71;97.98;96610.78;1764977;79;21057;-81
2021/12/31 02:39:38;;;;;;;8.28;5.20;;;;;;;9.74;98.00;96606.54;1752004;80;20975;-81
2021/12/31 02:44:27;;;;;;;9.70;6.10;;;;;;;9.75;98.23;96602.96;1760603;80;20987;-82
2021/12/31 02:46:53;;;;;;;9.63;5.62;;;;;;;9.74;98.51;96601.35;1754725;80;21053;-81
2021/12/31 02:49:23;;;;;;;5.85;3.90;;;;;;;9.72;98.56;96604.12;1755018;79;20985;-82
2021/12/31 02:51:47;;;;;;;6.55;4.15;;;;;;;9.72;98.54;96603.31;1757638;80;20988;-82
2021/12/31 02:54:12;;;;;;;7.40;4.42;;;;;;;9.72;98.48;96603.31;1757715;80;21101;-81
2021/12/31 02:56:39;;;;;;;8.33;5.78;;;;;;;9.70;98.89;96605.27;1754774;80;21078;-81
2021/12/31 02:59:04;;;;;;;7.17;4.55;;;;;;;9.68;98.92;96605.94;1751021;80;20991;-82
2021/12/31 03:01:33;;;;;;;6.95;4.95;;;;;;;9.65;98.97;96597.20;1761817;80;21027;-81
2021/12/31 03:03:59;;;;;;;9.00;5.15;;;;;;;9.65;98.75;96599.80;1746975;79;21465;-81
2021/12/31 03:06:25;;;;;;;15.35;7.92;;;;;;;9.65;98.71;96604.50;1764095;80;21042;-81
2021/12/31 03:08:52;;;;;;;3.77;3.33;;;;;;;9.67;98.75;96600.42;1769259;80;21015;-81
2021/12/31 03:11:19;;;;;;;9.60;5.65;;;;;;;9.67;98.59;96599.13;1755481;79;21074;-81
2021/12/31 03:13:51;;;;;;;17.20;10.25;;;;;;;9.69;98.73;96594.58;1694964;81;21043;-81
2021/12/31 03:16:15;;;;;;;11.05;7.00;;;;;;;9.71;98.70;96595.21;1701894;83;21071;-82
2021/12/31 03:18:42;;;;;;;11.00;5.67;;;;;;;9.70;98.58;96594.41;1718783;81;21023;-81
2021/12/31 03:21:20;;;;;;;7.92;5.25;;;;;;;9.71;98.72;96604.29;1692244;83;21070;-81
2021/12/31 03:23:38;;;;;;;17.92;9.28;;;;;;;9.71;98.58;96601.20;1697594;83;21051;-82
2021/12/31 03:26:04;;;;;;;7.30;4.20;;;;;;;9.73;98.71;96595.35;1717715;83;21011;-81
2021/12/31 03:28:30;;;;;;;63.98;28.25;;;;;;;9.73;98.62;96595.84;1719809;81;21075;-82
2021/12/31 03:30:55;;;;;;;4.97;3.45;;;;;;;9.75;98.61;96600.37;1707366;82;21419;-81
2021/12/31 03:33:21;;;;;;;5.15;3.67;;;;;;;9.78;98.60;96609.14;1715809;82;21043;-81
2021/12/31 03:35:47;;;;;;;8.40;5.35;;;;;;;9.76;98.59;96604.13;1705088;83;21210;-82
2021/12/31 03:38:13;;;;;;;5.08;3.52;;;;;;;9.75;98.70;96612.05;1711531;83;21016;-81
2021/12/31 03:40:39;;;;;;;5.83;4.03;;;;;;;9.71;98.71;96608.98;1705088;83;21331;-81
2021/12/31 03:43:06;;;;;;;4.15;3.17;;;;;;;9.69;98.51;96615.33;1705602;83;21133;-81
2021/12/31 03:45:32;;;;;;;6.55;4.75;;;;;;;9.71;98.56;96618.08;1699132;82;21375;-81
2021/12/31 03:47:58;;;;;;;3.80;2.98;;;;;;;9.71;98.57;96619.86;1702585;83;20987;-81
2021/12/31 03:50:24;;;;;;;4.05;3.37;;;;;;;9.71;98.43;96619.86;1698234;83;21043;-81
2021/12/31 03:52:49;;;;;;;3.87;3.08;;;;;;;9.72;98.43;96623.58;1701215;83;21032;-81
2021/12/31 03:55:15;;;;;;;7.55;4.80;;;;;;;9.73;98.37;96621.79;1695471;83;21374;-83
2021/12/31 03:57:41;;;;;;;3.95;2.90;;;;;;;9.73;98.42;96619.20;1735690;81;21015;-83
2021/12/31 04:00:09;;;;;;;3.08;2.72;;;;;;;9.71;98.59;96618.56;1704245;82;21337;-83
2021/12/31 04:02:35;;;;;;;4.45;3.30;;;;;;;9.70;98.39;96622.95;1771910;80;20987;-82
2021/12/31 04:05:01;;;;;;;4.53;3.20;;;;;;;9.69;98.27;96629.61;1769191;80;21070;-83
2021/12/31 04:07:26;;;;;;;5.50;3.67;;;;;;;9.69;98.32;96628.30;1757142;80;21327;-83
2021/12/31 04:09:53;;;;;;;4.05;2.83;;;;;;;9.69;98.30;96634.80;1751880;79;21354;-83
2021/12/31 04:12:18;;;;;;;4.25;3.55;;;;;;;9.69;98.31;96631.70;1756192;80;21021;-83
2021/12/31 04:14:44;;;;;;;5.58;4.00;;;;;;;9.69;98.24;96633.50;1757072;80;20984;-83
2021/12/31 04:17:10;;;;;;;3.65;3.20;;;;;;;9.66;98.41;96628.16;1761220;80;21030;-83
2021/12/31 04:19:36;;;;;;;6.10;5.03;;;;;;;9.66;98.79;96635.14;1762739;79;21465;-83
2021/12/31 04:22:02;;;;;;;3.30;2.85;;;;;;;9.64;98.57;96632.72;1767430;80;21433;-83
2021/12/31 04:24:50;;;;;;;3.90;3.52;;;;;;;9.66;98.57;96631.25;1762059;79;20989;-83
2021/12/31 04:26:56;;;;;;;4.15;3.30;;;;;;;9.65;98.58;96639.52;1750347;80;21023;-84
2021/12/31 04:29:22;;;;;;;3.80;3.30;;;;;;;9.63;98.63;96637.09;1758810;80;20963;-83
2021/12/31 04:31:47;;;;;;;5.45;4.72;;;;;;;9.61;98.78;96635.66;1761374;79;21099;-84
2021/12/31 04:34:13;;;;;;;4.10;3.62;;;;;;;9.60;98.71;96634.84;1756860;79;21093;-83
2021/12/31 04:36:39;;;;;;;4.95;4.08;;;;;;;9.59;98.55;96625.91;1725753;80;21067;-83
2021/12/31 04:39:05;;;;;;;4.92;4.42;;;;;;;9.57;98.63;96632.56;1763275;79;21453;-82
2021/12/31 04:41:31;;;;;;;4.53;4.03;;;;;;;9.55;98.85;96633.22;1769458;80;21046;-82
2021/12/31 04:43:56;;;;;;;4.42;3.98;;;;;;;9.55;99.37;96634.52;1743796;80;21067;-82
2021/12/31 04:46:22;;;;;;;3.75;3.22;;;;;;;9.54;99.38;96635.50;1762940;80;21077;-82
2021/12/31 04:48:48;;;;;;;3.10;2.80;;;;;;;9.55;99.61;96628.04;1753636;80;21406;-82
2021/12/31 04:51:14;;;;;;;3.37;3.08;;;;;;;9.57;99.48;96628.67;1771732;80;21102;-82
2021/12/31 04:53:40;;;;;;;3.87;3.17;;;;;;;9.57;99.50;96629.97;1769516;80;21082;-82
2021/12/31 04:56:06;;;;;;;3.55;3.25;;;;;;;9.59;99.54;96632.39;1760847;80;21051;-82
2021/12/31 04:58:32;;;;;;;3.08;2.77;;;;;;;9.59;99.44;96626.72;1766358;80;21039;-82
2021/12/31 05:00:58;;;;;;;2.87;2.25;;;;;;;9.62;99.52;96630.30;1766710;80;21039;-82
2021/12/31 05:03:23;;;;;;;3.90;3.50;;;;;;;9.65;99.37;96630.92;1757561;80;21043;-82
2021/12/31 05:05:50;;;;;;;5.90;4.70;;;;;;;9.65;99.41;96640.01;1765479;79;21065;-82
2021/12/31 05:08:15;;;;;;;4.60;3.95;;;;;;;9.65;99.40;96638.71;1766326;79;21012;-83
2021/12/31 05:10:41;;;;;;;5.20;3.77;;;;;;;9.73;99.31;96636.87;1740934;80;20967;-82
2021/12/31 05:13:09;;;;;;;4.60;3.60;;;;;;;9.76;99.08;96639.61;1758180;79;21081;-82
2021/12/31 05:15:38;;;;;;;3.72;3.22;;;;;;;9.76;99.04;96638.31;1760742;80;21011;-82
2021/12/31 05:18:03;;;;;;;3.17;2.87;;;;;;;9.73;98.92;96635.57;1765374;80;21038;-82
2021/12/31 05:20:28;;;;;;;3.62;2.60;;;;;;;9.72;98.85;96643.04;1763192;80;21067;-82
2021/12/31 05:22:57;;;;;;;4.00;2.92;;;;;;;9.70;98.61;96641.11;1763374;80;20999;-82
2021/12/31 05:25:22;;;;;;;2.92;2.42;;;;;;;9.69;98.58;96644.69;1767984;80;21355;-82
2021/12/31 05:27:49;;;;;;;2.92;2.35;;;;;;;9.68;98.64;96640.96;1760374;80;20994;-82
2021/12/31 05:30:15;;;;;;;2.47;2.20;;;;;;;9.69;98.53;96643.88;1766814;80;21063;-82
2021/12/31 05:32:41;;;;;;;2.40;2.20;;;;;;;9.68;98.39;96644.86;1742739;79;21101;-82
2021/12/31 05:35:08;;;;;;;3.30;2.10;;;;;;;9.69;98.49;96645.98;1767590;80;21075;-82
2021/12/31 05:37:33;;;;;;;3.02;2.50;;;;;;;9.70;98.28;96641.11;1761253;80;21038;-83
2021/12/31 05:39:59;;;;;;;3.37;2.45;;;;;;;9.69;98.46;96639.98;1759954;80;21088;-83
2021/12/31 05:42:25;;;;;;;3.50;3.20;;;;;;;9.67;98.33;96641.45;1754115;80;21090;-83
2021/12/31 05:44:51;;;;;;;2.95;2.65;;;;;;;9.68;98.40;96644.86;1760278;80;21111;-82
2021/12/31 05:47:17;;;;;;;3.35;3.05;;;;;;;9.67;98.19;96641.94;1729098;80;21589;-83
2021/12/31 05:49:42;;;;;;;5.85;2.40;;;;;;;9.69;98.26;96649.06;1737637;80;21386;-83
2021/12/31 05:52:08;;;;;;;2.40;2.17;;;;;;;9.70;98.28;96650.67;1766644;79;20983;-83
2021/12/31 05:54:34;;;;;;;3.52;3.22;;;;;;;9.70;98.54;96650.67;1740611;80;21423;-83
2021/12/31 05:57:00;;;;;;;4.00;2.98;;;;;;;9.68;98.26;96657.83;1764378;80;21089;-84
2021/12/31 05:59:26;;;;;;;4.03;3.45;;;;;;;9.68;98.33;96653.94;1768699;80;21103;-83
2021/12/31 06:01:51;;;;;;;3.40;3.10;;;;;;;9.65;98.19;96652.49;1765488;80;21079;-84
2021/12/31 06:04:17;;;;;;;3.60;2.60;;;;;;;9.65;98.43;96658.17;1753229;80;21430;-84
2021/12/31 06:06:43;;;;;;;3.85;2.10;;;;;;;9.65;98.54;96660.28;1763990;80;21075;-83
2021/12/31 06:09:11;;;;;;;3.52;3.22;;;;;;;9.66;98.75;96655.89;1766278;79;20995;-83
2021/12/31 06:11:38;;;;;;;2.37;2.17;;;;;;;9.67;98.73;96657.51;1770075;79;20995;-83
2021/12/31 06:14:05;;;;;;;2.52;2.20;;;;;;;9.66;98.78;96659.30;1771361;80;21027;-83
2021/12/31 06:16:37;;;;;;;2.20;1.90;;;;;;;9.66;98.92;96665.78;1765383;80;21078;-82
2021/12/31 06:19:05;;;;;;;2.35;1.77;;;;;;;9.67;98.97;96667.40;1762840;80;21086;-83
2021/12/31 06:21:36;;;;;;;2.80;2.12;;;;;;;9.67;99.02;96663.99;1769481;80;21024;-83
2021/12/31 06:24:02;;;;;;;3.50;2.22;;;;;;;9.63;99.06;96664.34;1759263;80;21032;-82
2021/12/31 06:26:28;;;;;;;3.67;2.00;;;;;;;9.65;99.27;96668.06;1755716;80;21326;-82
2021/12/31 06:28:54;;;;;;;3.95;2.00;;;;;;;9.60;99.02;96667.77;1760538;80;21050;-83
2021/12/31 06:31:21;;;;;;;3.25;1.98;;;;;;;9.59;99.10;96666.92;1748044;80;21094;-83
2021/12/31 06:33:46;;;;;;;2.72;1.70;;;;;;;9.58;99.10;96674.39;1748373;80;21029;-82
2021/12/31 06:36:12;;;;;;;2.60;1.52;;;;;;;9.59;99.31;96675.20;1753217;80;21062;-82
2021/12/31 06:38:38;;;;;;;1.57;1.15;;;;;;;9.57;99.21;96683.16;1758919;80;21019;-83
2021/12/31 06:41:04;;;;;;;2.45;1.62;;;;;;;9.58;99.50;96682.17;1753887;80;21062;-83
2021/12/31 06:43:29;;;;;;;2.75;2.05;;;;;;;9.58;99.32;96679.58;1765312;79;21054;-83
2021/12/31 06:45:55;;;;;;;2.45;1.62;;;;;;;9.59;99.47;96681.20;1699232;82;21077;-83
2021/12/31 06:48:21;;;;;;;2.87;1.35;;;;;;;9.59;99.46;96691.57;1731049;81;21173;-82
2021/12/31 06:50:47;;;;;;;1.98;1.10;;;;;;;9.61;99.61;96690.14;1721292;81;21454;-83
2021/12/31 06:53:13;;;;;;;3.10;1.60;;;;;;;9.63;99.78;96687.69;1759291;80;21081;-82
2021/12/31 06:55:38;;;;;;;2.98;1.90;;;;;;;9.59;99.63;96686.38;1753364;80;20948;-82
2021/12/31 06:58:04;;;;;;;2.65;1.80;;;;;;;9.68;99.91;96691.56;1756739;80;21003;-82
2021/12/31 07:00:30;;;;;;;2.55;1.77;;;;;;;9.70;99.62;96702.09;1751419;80;21083;-83
2021/12/31 07:03:11;;;;;;;3.35;1.82;;;;;;;9.73;99.52;96697.84;1762056;80;20994;-83
2021/12/31 07:05:39;;;;;;;2.75;1.87;;;;;;;9.74;99.32;96702.06;1756275;80;21026;-83
2021/12/31 07:08:04;;;;;;;2.80;1.62;;;;;;;9.76;99.20;96701.43;1751679;80;21386;-82
2021/12/31 07:10:31;;;;;;;12.25;9.68;;;;;;;9.76;99.11;96694.94;1764636;80;21075;-82
2021/12/31 07:13:02;;;;;;;6.55;4.87;;;;;;;9.78;99.02;96694.28;1765406;80;21402;-83
2021/12/31 07:15:27;;;;;;;4.28;2.95;;;;;;;9.79;98.88;96696.39;1756726;80;21116;-82
2021/12/31 07:17:53;;;;;;;9.50;8.80;;;;;;;9.78;98.92;96691.69;1753231;80;21428;-83
2021/12/31 07:20:20;;;;;;;9.45;7.58;;;;;;;9.80;98.91;96691.52;1764220;80;20995;-82
2021/12/31 07:22:46;;;;;;;6.80;5.03;;;;;;;9.81;98.89;96694.43;1765790;80;21060;-82
2021/12/31 07:25:12;;;;;;;6.45;5.67;;;;;;;9.80;98.78;96693.62;1748599;80;21055;-82
2021/12/31 07:27:38;;;;;;;3.83;2.65;;;;;;;9.79;98.96;96695.90;1761736;80;20977;-82
2021/12/31 07:30:05;;;;;;;4.05;3.65;;;;;;;9.82;98.88;96696.05;1755185;80;21424;-82
2021/12/31 07:32:37;;;;;;;2.60;2.40;;;;;;;9.84;99.12;96697.48;1753679;80;21037;-82
2021/12/31 07:35:06;;;;;;;2.15;1.95;;;;;;;9.87;99.05;96706.23;1761549;80;21437;-83
2021/12/31 07:37:31;;;;;;;4.45;4.03;;;;;;;9.90;99.09;96701.19;1704497;82;21039;-83
2021/12/31 07:40:03;;;;;;;4.97;4.47;;;;;;;9.92;98.94;96702.66;1694136;83;21012;-83
2021/12/31 07:42:25;;;;;;;4.42;3.80;;;;;;;9.95;98.95;96706.70;1702436;83;22061;-82
2021/12/31 07:44:51;;;;;;;2.95;1.90;;;;;;;9.95;98.75;96710.59;1705928;83;21078;-82
2021/12/31 07:47:16;;;;;;;4.40;3.65;;;;;;;9.97;98.74;96711.23;1690349;83;21056;-82
2021/12/31 07:49:42;;;;;;;3.08;1.98;;;;;;;9.96;98.56;96712.70;1730327;81;20967;-82
2021/12/31 07:52:08;;;;;;;2.80;2.00;;;;;;;9.97;98.66;96722.91;1767786;80;21389;-83
2021/12/31 07:54:35;;;;;;;2.37;1.60;;;;;;;9.98;98.62;96718.52;1766840;80;20976;-82
2021/12/31 07:57:01;;;;;;;2.65;2.33;;;;;;;9.94;98.46;96721.95;1768825;80;21339;-82
2021/12/31 07:59:26;;;;;;;3.08;2.77;;;;;;;9.92;98.53;96721.28;1768675;79;21030;-82
2021/12/31 08:01:52;;;;;;;4.62;2.40;;;;;;;9.91;98.48;96715.78;1766563;79;20994;-82
2021/12/31 08:04:18;;;;;;;2.52;2.33;;;;;;;9.89;98.60;96713.84;1747395;80;21012;-81
2021/12/31 08:06:44;;;;;;;2.70;2.47;;;;;;;9.86;98.55;96712.40;1755936;80;21458;-82
2021/12/31 08:09:11;;;;;;;2.62;1.90;;;;;;;9.84;98.86;96714.84;1763950;79;21133;-82
2021/12/31 08:11:39;;;;;;;1.95;1.62;;;;;;;9.81;99.19;96717.30;1764987;80;20987;-82
2021/12/31 08:14:05;;;;;;;2.60;2.40;;;;;;;9.79;99.29;96714.06;1755869;80;21594;-82
2021/12/31 08:16:31;;;;;;;2.17;1.98;;;;;;;9.78;99.44;96709.05;1758731;80;21086;-82
2021/12/31 08:18:57;;;;;;;3.20;2.80;;;;;;;9.77;99.62;96716.02;1749030;80;21108;-81
2021/12/31 08:21:22;;;;;;;2.60;2.40;;;;;;;9.76;99.53;96720.89;1759092;80;21071;-82
2021/12/31 08:23:48;;;;;;;2.80;2.12;;;;;;;9.78;99.54;96729.80;1761462;80;21402;-82
2021/12/31 08:26:15;;;;;;;3.27;2.98;;;;;;;9.81;99.58;96722.98;1767425;79;21600;-82
2021/12/31 08:28:41;;;;;;;4.60;2.70;;;;;;;9.80;99.44;96729.14;1767884;79;21417;-82
2021/12/31 08:31:06;;;;;;;3.77;3.30;;;;;;;9.76;99.60;96723.48;1751594;80;21134;-82
2021/12/31 08:33:32;;;;;;;4.03;2.50;;;;;;;9.82;99.54;96737.08;1758370;80;21509;-82
2021/12/31 08:35:58;;;;;;;3.87;3.00;;;;;;;9.84;99.55;96734.31;1761770;80;20947;-82
2021/12/31 08:38:24;;;;;;;3.20;2.70;;;;;;;9.86;99.50;96733.16;1764000;80;21054;-82
2021/12/31 08:40:50;;;;;;;3.12;2.67;;;;;;;9.90;99.61;96738.81;1761058;80;21097;-82
2021/12/31 08:43:15;;;;;;;2.37;1.95;;;;;;;9.88;99.50;96736.88;1742540;80;21039;-81
2021/12/31 08:45:41;;;;;;;2.62;2.30;;;;;;;9.90;99.45;96742.71;1769649;79;22395;-82
2021/12/31 08:48:07;;;;;;;3.62;2.30;;;;;;;9.91;99.35;96736.54;1765951;80;21071;-81
2021/12/31 08:50:34;;;;;;;3.47;2.42;;;;;;;9.91;99.27;96741.24;1759721;80;21095;-82
2021/12/31 08:53:01;;;;;;;3.67;2.92;;;;;;;9.93;99.21;96742.41;1768745;80;21090;-81
2021/12/31 08:55:27;;;;;;;4.22;3.15;;;;;;;9.96;99.01;96751.63;1746253;80;21109;-81
2021/12/31 08:57:53;;;;;;;4.30;2.62;;;;;;;9.99;98.98;96746.91;1752054;81;21075;-81
2021/12/31 09:00:19;;;;;;;5.30;3.85;;;;;;;10.02;98.85;96749.16;1757386;80;22006;-81
2021/12/31 09:02:50;;;;;;;5.10;3.80;;;;;;;10.06;98.80;96747.03;1758661;79;20982;-81
2021/12/31 09:05:15;;;;;;;4.67;3.47;;;;;;;10.07;98.62;96744.26;1764592;80;21079;-82
2021/12/31 09:07:41;;;;;;;20.82;14.28;;;;;;;10.10;98.62;96747.84;1767742;79;21042;-81
2021/12/31 09:10:09;;;;;;;6.83;4.50;;;;;;;10.14;98.54;96750.91;1749169;80;20999;-80
2021/12/31 09:12:36;;;;;;;15.25;11.25;;;;;;;10.18;98.55;96753.47;1740788;79;21017;-80
2021/12/31 09:15:02;;;;;;;13.53;10.63;;;;;;;10.20;98.27;96747.13;1759137;80;21006;-80
2021/12/31 09:17:28;;;;;;;11.08;9.93;;;;;;;10.24;98.35;96751.51;1761343;79;21315;-81
2021/12/31 09:19:53;;;;;;;16.30;8.28;;;;;;;10.26;98.21;96743.09;1761896;80;21090;-81
2021/12/31 09:22:19;;;;;;;13.38;7.50;;;;;;;10.26;97.92;96743.58;1766179;80;21358;-81
2021/12/31 09:24:46;;;;;;;12.85;8.95;;;;;;;10.26;97.59;96750.07;1764038;80;21386;-81
2021/12/31 09:27:11;;;;;;;17.02;10.40;;;;;;;10.28;97.52;96752.81;1764913;79;21004;-81
2021/12/31 09:29:37;;;;;;;23.07;15.00;;;;;;;10.31;97.26;96747.77;1767866;80;20975;-81
2021/12/31 09:32:04;;;;;;;45.73;27.22;;;;;;;10.33;97.19;96744.01;1760624;80;21091;-81
2021/12/31 09:34:30;;;;;;;31.00;23.52;;;;;;;10.35;97.08;96747.73;1759480;80;21004;-81
2021/12/31 09:36:56;;;;;;;24.82;20.37;;;;;;;10.40;96.61;96751.91;1767435;80;21445;-81
2021/12/31 09:39:21;;;;;;;17.57;12.18;;;;;;;10.42;96.68;96752.09;1763673;79;20980;-81
2021/12/31 09:41:47;;;;;;;26.30;16.75;;;;;;;10.44;96.57;96762.30;1769968;80;20984;-82
2021/12/31 09:44:15;;;;;;;23.12;13.53;;;;;;;10.44;96.43;96759.22;1764899;79;21362;-81
2021/12/31 09:46:41;;;;;;;18.65;9.25;;;;;;;10.47;96.19;96751.08;1744158;80;21189;-81
2021/12/31 09:49:07;;;;;;;13.75;10.43;;;;;;;10.52;96.07;96751.84;1762074;80;21007;-82
2021/12/31 09:51:33;;;;;;;32.40;24.40;;;;;;;10.57;96.02;96747.42;1769978;80;21031;-82
2021/12/31 09:54:00;;;;;;;16.27;8.93;;;;;;;10.64;95.89;96756.97;1767728;79;21018;-81
2021/12/31 09:56:28;;;;;;;19.85;9.63;;;;;;;10.69;95.40;96744.27;1752655;80;21012;-81
2021/12/31 09:58:54;;;;;;;29.02;12.43;;;;;;;10.72;95.46;96746.51;1761230;80;20983;-81
2021/12/31 10:01:20;;;;;;;13.45;7.83;;;;;;;10.76;95.26;96745.20;1761011;80;21052;-81
2021/12/31 10:03:56;;;;;;;20.75;9.23;;;;;;;10.79;94.79;96733.16;1762406;80;20975;-81
2021/12/31 10:06:21;;;;;;;18.27;11.83;;;;;;;10.85;94.86;96732.13;1726237;80;21015;-81
2021/12/31 10:08:47;;;;;;;38.63;18.98;;;;;;;10.89;94.56;96732.89;1752590;79;21023;-81
2021/12/31 10:11:24;;;;;;;24.00;12.13;;;;;;;10.95;94.31;96739.20;1765304;79;21317;-81
2021/12/31 10:14:02;;;;;;;24.20;11.97;;;;;;;10.96;93.75;96734.33;1755209;80;21115;-81
2021/12/31 10:16:40;;;;;;;13.83;6.90;;;;;;;10.97;93.84;96735.94;1762030;80;21022;-82
2021/12/31 10:19:18;;;;;;;29.70;15.28;;;;;;;10.96;93.24;96731.23;1764066;80;20991;-81
2021/12/31 10:21:50;;;;;;;32.50;14.60;;;;;;;10.99;93.49;96727.47;1758441;80;21110;-81
2021/12/31 10:24:25;;;;;;;30.88;14.00;;;;;;;11.02;93.42;96725.81;1757337;80;21058;-80
2021/12/31 10:26:53;;;;;;;11.40;6.03;;;;;;;11.06;93.33;96727.91;1758560;79;20972;-81
2021/12/31 10:29:19;;;;;;;22.70;14.73;;;;;;;11.06;92.95;96730.97;1768316;80;21058;-81
2021/12/31 10:31:47;;;;;;;25.43;13.58;;;;;;;11.07;93.04;96732.61;1760210;80;21086;-81
2021/12/31 10:34:30;;;;;;;12.55;7.00;;;;;;;11.05;92.65;96724.95;1754345;80;21086;-81
2021/12/31 10:37:02;;;;;;;9.63;6.12;;;;;;;11.05;92.45;96729.35;1755808;80;21445;-81
2021/12/31 10:39:31;;;;;;;8.88;6.15;;;;;;;11.04;92.52;96730.34;1761018;80;21043;-80
2021/12/31 10:42:04;;;;;;;14.90;7.78;;;;;;;11.04;92.28;96729.03;1759880;79;21026;-81
2021/12/31 10:44:50;;;;;;;7.15;5.00;;;;;;;11.02;92.00;96734.41;1770427;80;21058;-80
2021/12/31 10:47:31;;;;;;;14.83;8.00;;;;;;;10.99;92.52;96728.77;1763989;80;22007;-80
2021/12/31 10:50:07;;;;;;;7.30;4.70;;;;;;;10.92;92.37;96723.47;1762460;80;21002;-82
2021/12/31 10:52:47;;;;;;;17.15;9.33;;;;;;;10.93;92.07;96723.78;1767906;80;21022;-80
2021/12/31 10:57:43;;;;;;;34.23;19.32;;;;;;;10.91;92.13;96721.05;1704782;82;21043;-81
2021/12/31 11:00:09;;;;;;;7.28;5.00;;;;;;;10.93;91.88;96706.89;1700958;83;21136;-80
2021/12/31 11:02:35;;;;;;;22.35;13.38;;;;;;;10.92;91.32;96705.27;1706232;83;21035;-80
2021/12/31 11:05:01;;;;;;;9.00;6.60;;;;;;;10.94;91.71;96702.00;1703024;83;20989;-80
2021/12/31 11:07:28;;;;;;;21.20;11.90;;;;;;;10.95;91.71;96693.70;1697540;83;21070;-81
2021/12/31 11:09:58;;;;;;;25.82;12.30;;;;;;;10.95;91.88;96692.41;1724925;81;21090;-80
2021/12/31 11:12:26;;;;;;;26.05;13.08;;;;;;;10.95;91.50;96686.72;1704960;83;21429;-81
2021/12/31 11:14:51;;;;;;;14.07;8.23;;;;;;;10.97;90.85;96676.95;1702404;83;21481;-81
2021/12/31 11:17:17;;;;;;;25.10;14.70;;;;;;;10.99;91.07;96686.67;1702861;82;20998;-81
2021/12/31 11:19:44;;;;;;;15.58;10.68;;;;;;;11.04;90.72;96685.64;1701720;83;21094;-81
2021/12/31 11:22:12;;;;;;;17.45;8.73;;;;;;;11.07;90.58;96674.91;1721966;81;20982;-81
2021/12/31 11:24:38;;;;;;;15.18;9.10;;;;;;;11.11;90.28;96675.36;1723447;81;21046;-81
2021/12/31 11:27:30;;;;;;;12.53;8.25;;;;;;;11.12;89.64;96667.87;1733048;81;21042;-80
2021/12/31 11:29:57;;;;;;;17.77;10.73;;;;;;;11.15;89.59;96677.10;1694320;83;21043;-80
2021/12/31 11:32:53;;;;;;;12.33;7.72;;;;;;;11.17;89.68;96672.03;1700008;83;21329;-80
2021/12/31 11:35:37;;;;;;;13.28;7.85;;;;;;;11.21;89.43;96675.88;1696632;83;21592;-80
2021/12/31 11:38:16;;;;;;;23.55;12.23;;;;;;;11.22;89.31;96680.10;1713228;82;21438;-81
2021/12/31 11:40:49;;;;;;;18.50;10.78;;;;;;;11.23;88.92;96681.75;1698176;82;21070;-80
2021/12/31 11:43:26;;;;;;;16.02;9.03;;;;;;;11.20;89.21;96669.07;1699787;83;21472;-80
2021/12/31 11:46:17;;;;;;;14.43;7.53;;;;;;;11.18;88.74;96663.73;1706396;83;21040;-81